Rogers, Arkansas
Current Conditions -  °F | °C
As of 3:57 AM on Friday 24 Oct 2014 (Local Time) from KROG Reporting Station
Clear Clear  
Wind Chill: 50°   Ceiling: Unl
Heat Index: 50°   Visibility: 9mi
Dew Point: 49°   Wind: 0mph
Humidity: 96%   Direction: NA
Pressure: 30.14"   Gusts: NA
Location:  36.33°N, 94.12°W
Report Text: KROG 240857Z AUTO 00000KT 9SM CLR 10/09 A3014 RMK AO2 SLP203 T01000094 58003
Loading
Personal Weather Stations






























Interactive Weather Map New forecast layout! Learn more

10-Day Weather Forecast

Advertisements
Track Severe Weather on mobile